CheckWX is a tool to help pilots better visualize weather data.  It is not intended as a substitute for an official pre-flight weather briefing.

12:07:29 UTC

KHND TAF
Henderson Executive Airport
Las Vegas, Nevada, USA
KHND 261120Z 2612/2712 21010KT P6SM SCT250 FM261500 17012KT P6SM SCT250 FM262000 21020G28KT P6SM SCT250

Jun-26@
12:00 UTC

Jun-26 @ 12:00 UTC

Jun-26@
15:00 UTC

Jun-26 @ 15:00 UTC

KHND 261120Z 2612/2712 21010KT P6SM SCT250
Wind
  • 210° at 10 KTS
Cloud Levels
  • Scattered at 25,000' AGL

Jun-26@
15:00 UTC

Jun-26 @ 15:00 UTC

Jun-26@
20:00 UTC

Jun-26 @ 20:00 UTC

FM261500 17012KT P6SM SCT250

From

From Standard forecast or significant change

Wind
  • 170° at 12 KTS
Cloud Levels
  • Scattered at 25,000' AGL

Jun-26@
20:00 UTC

Jun-26 @ 20:00 UTC

Jun-27@
12:00 UTC

Jun-27 @ 12:00 UTC

FM262000 21020G28KT P6SM SCT250

From

From Standard forecast or significant change

Wind
  • 210° at 20 KTS
  • {Gusting to 28 KTS
Cloud Levels
  • Scattered at 25,000' AGL